Southchurch Village, United Kingdom
Current Conditions -  °F | °C
As of 3:50 PM on Sunday 23 Nov 2014 (Local Time) from EGMC Reporting Station
Light Rain Light Rain  
Wind Chill: 39°   Ceiling: 2600
Heat Index: 45°   Visibility: 5mi
Dew Point: 41°   Wind: 10mph
Humidity: 87%   Direction: 340°NNW
Pressure: 30"   Gusts: NA
Location:  51.54°N, 0.73°E
Report Text: EGMC 231550Z 34009KT 8000 -RA SCT010 OVC026 07/05 Q1016
Loading
Personal Weather Stations






























Interactive Weather Map New forecast layout! Learn more

10-Day Weather Forecast

Advertisements
Track Severe Weather on mobile